Time;durP1;ratioP1;P1;durP2;ratioP2;P2;SDS_P1;SDS_P2;PMS_P1;PMS_P2;Temp;Humidity;BMP_temperature;BMP_pressure;BME280_temperature;BME280_humidity;BME280_pressure;Samples;Min_cycle;Max_cycle;Signal;HPM_P1;HPM_P2
2022/12/15 00:40:31;;;;;;;6.65;4.50;;;16.20;52.30;;;;;;10413940;28;20061;-56
2022/12/15 00:50:51;;;;;;;6.38;4.68;;;16.20;52.10;;;;;;10445474;28;20037;-54
2022/12/15 01:22:27;;;;;;;5.47;4.20;;;16.30;51.90;;;;;;10435074;28;20072;-56
2022/12/15 01:27:28;;;;;;;5.63;4.50;;;16.30;51.80;;;;;;10444451;28;20024;-55
2022/12/15 01:32:29;;;;;;;5.85;4.80;;;16.20;51.80;;;;;;10436844;28;20038;-55
2022/12/15 01:37:29;;;;;;;7.07;4.68;;;16.30;51.80;;;;;;10437328;28;20744;-54
2022/12/15 01:42:30;;;;;;;5.65;4.07;;;16.30;51.80;;;;;;10452575;28;20139;-55
2022/12/15 01:47:31;;;;;;;5.72;4.38;;;16.30;51.60;;;;;;10450413;28;20056;-54
2022/12/15 01:52:32;;;;;;;5.72;4.70;;;16.30;51.50;;;;;;10413827;28;20017;-56
2022/12/15 01:57:35;;;;;;;5.70;4.45;;;16.30;51.50;;;;;;10431147;28;20039;-56
2022/12/15 02:02:37;;;;;;;5.50;4.63;;;16.30;51.50;;;;;;10410795;28;20017;-56
2022/12/15 02:07:38;;;;;;;5.65;4.03;;;16.30;51.50;;;;;;10443639;28;20027;-56
2022/12/15 02:13:03;;;;;;;6.20;5.32;;;16.30;51.50;;;;;;10435890;28;20030;-56
2022/12/15 02:18:26;;;;;;;7.45;5.25;;;16.30;51.50;;;;;;10445154;28;20332;-57
2022/12/15 02:24:10;;;;;;;5.22;4.68;;;16.30;51.60;;;;;;10450675;28;20400;-56
2022/12/15 02:29:28;;;;;;;5.13;3.85;;;16.20;51.60;;;;;;10414671;28;20025;-56
2022/12/15 02:35:04;;;;;;;7.97;5.30;;;16.20;51.70;;;;;;10429349;28;20544;-56
2022/12/15 02:40:08;;;;;;;6.50;4.38;;;16.20;51.70;;;;;;10442851;28;20476;-56
2022/12/15 02:45:14;;;;;;;6.35;4.55;;;16.20;51.60;;;;;;10444508;28;20045;-56
2022/12/15 02:50:32;;;;;;;8.45;4.78;;;16.20;51.60;;;;;;10443737;28;20032;-56
2022/12/15 02:56:09;;;;;;;6.43;4.75;;;16.20;51.60;;;;;;10431891;28;20037;-56
2022/12/15 03:01:37;;;;;;;5.60;3.90;;;16.20;51.50;;;;;;10434978;28;20469;-56
2022/12/15 03:06:38;;;;;;;4.18;3.72;;;16.20;51.60;;;;;;10433493;28;20605;-56
2022/12/15 03:11:39;;;;;;;5.63;4.68;;;16.20;51.60;;;;;;10427032;28;20021;-56
2022/12/15 03:16:39;;;;;;;4.90;4.07;;;16.20;51.70;;;;;;10437109;28;20047;-55
2022/12/15 03:21:40;;;;;;;5.30;3.90;;;16.20;51.70;;;;;;10448151;28;20052;-54
2022/12/15 03:26:42;;;;;;;6.10;4.45;;;16.20;52.10;;;;;;10445032;28;20056;-58
2022/12/15 03:31:43;;;;;;;5.10;3.95;;;16.30;51.60;;;;;;10446196;28;20112;-56
2022/12/15 03:36:44;;;;;;;5.40;4.07;;;16.30;51.30;;;;;;10395729;28;20033;-55
2022/12/15 03:41:44;;;;;;;4.93;3.70;;;16.30;51.20;;;;;;10433089;28;20017;-55
2022/12/15 03:46:46;;;;;;;4.47;3.90;;;16.30;51.20;;;;;;10442413;28;20052;-55
2022/12/15 03:51:46;;;;;;;5.78;3.97;;;16.30;51.40;;;;;;10415964;28;20033;-56
2022/12/15 03:56:47;;;;;;;6.15;3.63;;;16.30;51.30;;;;;;10437867;28;20044;-57
2022/12/15 04:01:48;;;;;;;5.47;4.13;;;16.30;51.30;;;;;;10440644;28;20096;-55
2022/12/15 04:06:48;;;;;;;5.35;3.78;;;16.30;51.30;;;;;;10432740;28;20043;-56
2022/12/15 04:11:49;;;;;;;4.97;3.50;;;16.30;51.30;;;;;;10416712;28;20119;-56
2022/12/15 04:16:50;;;;;;;3.95;3.28;;;16.30;51.30;;;;;;10444790;28;20155;-55
2022/12/15 04:21:50;;;;;;;5.10;3.78;;;16.30;51.30;;;;;;10446148;28;20580;-56
2022/12/15 05:36:00;;;;;;;4.68;3.38;;;16.20;51.50;;;;;;10443086;28;20045;-55
2022/12/15 05:41:01;;;;;;;5.32;3.83;;;16.20;51.60;;;;;;10432583;28;20093;-55
2022/12/15 05:46:03;;;;;;;5.25;4.13;;;16.20;51.90;;;;;;10433536;28;20522;-54
2022/12/15 05:51:09;;;;;;;7.57;3.85;;;16.40;52.20;;;;;;10431646;28;20064;-54
2022/12/15 05:56:13;;;;;;;8.10;3.88;;;16.40;52.60;;;;;;10426925;28;20041;-54
2022/12/15 06:01:17;;;;;;;5.70;4.13;;;16.30;53.20;;;;;;10410598;28;20022;-54
2022/12/15 06:06:18;;;;;;;6.70;3.83;;;16.30;53.90;;;;;;10446044;28;20460;-55
2022/12/15 06:11:21;;;;;;;6.20;3.97;;;16.30;54.80;;;;;;10444855;28;20021;-54
2022/12/15 06:16:26;;;;;;;13.43;4.18;;;16.30;54.20;;;;;;10428198;28;20083;-55
2022/12/15 06:21:36;;;;;;;9.23;4.65;;;16.30;54.90;;;;;;10426296;28;20037;-53
2022/12/15 06:26:38;;;;;;;11.77;5.50;;;16.10;54.60;;;;;;10432224;28;20028;-55
2022/12/15 06:31:40;;;;;;;9.70;4.75;;;16.00;54.10;;;;;;10458069;28;20032;-55
2022/12/15 06:36:41;;;;;;;6.53;4.05;;;16.00;53.80;;;;;;10421686;28;20029;-55
2022/12/15 06:41:43;;;;;;;9.15;5.05;;;16.00;53.80;;;;;;10447872;28;20021;-56
2022/12/15 06:46:45;;;;;;;8.13;5.57;;;15.90;53.50;;;;;;10447793;28;20412;-55
2022/12/15 06:51:48;;;;;;;8.65;4.45;;;15.90;53.20;;;;;;10433652;28;20112;-55
2022/12/15 06:56:49;;;;;;;7.50;4.55;;;16.00;52.80;;;;;;10399289;28;20427;-56
2022/12/15 07:01:49;;;;;;;6.68;4.80;;;16.20;52.60;;;;;;10439882;28;20104;-55
2022/12/15 07:06:50;;;;;;;10.95;5.13;;;16.20;52.40;;;;;;10444661;28;20508;-58
2022/12/15 07:11:51;;;;;;;15.00;5.47;;;16.20;52.90;;;;;;10427190;28;20037;-53
2022/12/15 07:16:52;;;;;;;8.38;5.47;;;16.10;52.30;;;;;;10447227;28;20036;-54
2022/12/15 07:21:55;;;;;;;17.73;6.32;;;16.10;52.40;;;;;;10400838;28;20092;-54
2022/12/15 07:26:56;;;;;;;11.48;5.15;;;16.30;51.80;;;;;;10399680;28;20010;-53
2022/12/15 07:31:57;;;;;;;13.18;5.65;;;16.40;51.40;;;;;;10421833;28;20033;-55
2022/12/15 07:36:57;;;;;;;11.38;4.75;;;16.40;51.20;;;;;;10415680;28;20028;-54
2022/12/15 07:41:58;;;;;;;9.43;4.95;;;16.50;51.10;;;;;;10432607;28;20112;-54
2022/12/15 07:46:59;;;;;;;11.38;4.60;;;16.50;50.90;;;;;;10429286;28;20049;-55
2022/12/15 07:51:59;;;;;;;7.43;4.50;;;16.50;50.90;;;;;;10422415;28;20013;-55
2022/12/15 07:57:01;;;;;;;10.50;5.65;;;16.40;50.90;;;;;;10418114;28;20456;-54
2022/12/15 08:02:03;;;;;;;9.25;4.90;;;16.40;51.00;;;;;;10418294;28;20522;-55
2022/12/15 08:07:03;;;;;;;8.20;5.35;;;16.30;51.10;;;;;;10405855;28;20029;-54
2022/12/15 08:12:04;;;;;;;8.38;4.55;;;16.30;51.30;;;;;;10405035;28;20021;-53
2022/12/15 08:17:05;;;;;;;9.52;4.35;;;16.30;51.50;;;;;;10413367;28;20040;-54
2022/12/15 08:22:06;;;;;;;6.47;4.68;;;16.30;51.70;;;;;;10437853;28;20017;-53
2022/12/15 08:27:07;;;;;;;9.77;4.70;;;16.30;51.60;;;;;;10419431;28;20083;-54
2022/12/15 08:32:08;;;;;;;6.70;4.30;;;16.30;51.70;;;;;;10420405;28;20775;-54
2022/12/15 08:37:08;;;;;;;7.78;4.70;;;16.30;51.70;;;;;;10414735;28;20061;-54
2022/12/15 08:42:10;;;;;;;8.77;4.35;;;16.20;51.70;;;;;;10443687;28;20100;-55
2022/12/15 08:47:11;;;;;;;6.93;4.35;;;16.20;51.80;;;;;;10441821;28;20063;-54
2022/12/15 08:52:11;;;;;;;7.57;3.80;;;16.30;51.80;;;;;;10432770;28;20544;-54
2022/12/15 08:57:12;;;;;;;7.55;4.35;;;16.20;51.80;;;;;;10447765;28;20037;-53
2022/12/15 09:02:13;;;;;;;5.50;4.00;;;16.20;51.80;;;;;;10437507;28;20710;-56
2022/12/15 09:07:14;;;;;;;6.40;4.72;;;16.20;51.80;;;;;;10433380;28;20021;-49
2022/12/15 09:12:15;;;;;;;5.68;4.68;;;16.20;51.80;;;;;;10447226;28;20045;-54
2022/12/15 09:17:15;;;;;;;9.85;4.88;;;16.20;51.90;;;;;;10448793;28;20163;-54
2022/12/15 09:22:16;;;;;;;7.10;4.72;;;16.00;52.70;;;;;;10446328;28;20155;-54
2022/12/15 09:27:17;;;;;;;7.03;4.95;;;16.00;52.40;;;;;;10447400;28;20467;-54
2022/12/15 09:32:17;;;;;;;7.00;4.50;;;16.10;52.20;;;;;;10437440;28;20171;-53
2022/12/15 09:37:19;;;;;;;5.93;4.75;;;16.20;52.00;;;;;;10424001;28;20460;-54
2022/12/15 09:42:30;;;;;;;5.95;4.32;;;16.20;52.10;;;;;;10438410;28;20047;-54
2022/12/15 09:48:03;;;;;;;8.18;4.97;;;16.10;52.60;;;;;;10402799;28;20053;-54
2022/12/15 09:53:11;;;;;;;6.50;4.50;;;16.10;52.80;;;;;;10431082;28;20392;-53
2022/12/15 09:59:01;;;;;;;7.43;5.13;;;15.80;53.80;;;;;;10386286;28;20079;-54
2022/12/15 10:04:08;;;;;;;4.85;3.72;;;15.70;54.20;;;;;;10409565;28;20009;-53
2022/12/15 10:09:26;;;;;;;5.53;3.88;;;15.60;55.90;;;;;;10433662;28;20025;-54
2022/12/15 10:14:48;;;;;;;8.27;5.22;;;15.60;55.80;;;;;;10434088;28;20025;-54
2022/12/15 10:20:00;;;;;;;6.32;3.67;;;15.50;55.90;;;;;;10440869;28;20029;-53
2022/12/15 10:25:24;;;;;;;6.28;4.40;;;15.50;56.20;;;;;;10398033;28;20581;-54
2022/12/15 10:30:25;;;;;;;5.80;4.78;;;15.40;56.30;;;;;;10447544;28;20020;-53
2022/12/15 10:35:32;;;;;;;6.70;4.57;;;15.30;56.70;;;;;;10449300;28;21177;-52
2022/12/15 10:40:46;;;;;;;5.75;4.82;;;15.20;56.90;;;;;;10414797;28;20014;-54
2022/12/15 10:45:49;;;;;;;6.32;4.80;;;15.20;57.00;;;;;;10422495;28;20496;-54
2022/12/15 10:50:49;;;;;;;7.55;5.55;;;15.10;57.20;;;;;;10435198;28;20369;-52
2022/12/15 10:56:00;;;;;;;7.05;4.32;;;15.20;57.60;;;;;;10429410;28;20037;-53
2022/12/15 11:01:07;;;;;;;7.28;5.13;;;15.20;57.70;;;;;;10433975;28;20043;-54
2022/12/15 11:06:20;;;;;;;8.98;5.63;;;15.20;57.30;;;;;;10431720;28;20025;-54
2022/12/15 11:16:56;;;;;;;8.00;5.43;;;15.20;57.30;;;;;;10425851;28;20588;-54
2022/12/15 11:22:11;;;;;;;6.40;4.97;;;15.20;57.30;;;;;;10421998;28;20033;-54
2022/12/15 11:27:32;;;;;;;6.57;4.97;;;15.20;57.20;;;;;;10447712;28;20025;-53
2022/12/15 11:32:36;;;;;;;6.40;4.90;;;15.20;57.40;;;;;;10443359;28;20567;-54
2022/12/15 11:37:46;;;;;;;6.95;6.13;;;15.20;57.10;;;;;;10447022;28;20463;-54
2022/12/15 11:43:09;;;;;;;6.70;5.28;;;15.10;57.30;;;;;;10430205;28;20101;-54
2022/12/15 11:48:23;;;;;;;5.90;5.20;;;15.10;57.50;;;;;;10431401;28;20440;-53
2022/12/15 11:53:41;;;;;;;10.23;5.80;;;15.00;57.50;;;;;;10403767;28;20022;-52
2022/12/15 11:59:25;;;;;;;7.75;5.80;;;14.90;57.90;;;;;;10387681;28;20034;-53
2022/12/15 12:04:33;;;;;;;9.43;6.00;;;14.80;58.10;;;;;;10405118;28;20075;-54
2022/12/15 12:09:48;;;;;;;7.28;5.28;;;14.80;57.90;;;;;;10411553;28;20033;-52
2022/12/15 12:15:18;;;;;;;8.07;5.55;;;14.80;57.90;;;;;;10423102;28;20025;-53
2022/12/15 12:20:23;;;;;;;;;;;14.80;57.60;;;;;;10432411;28;20471;-52
2022/12/15 12:25:25;;;;;;;7.43;5.50;;;14.90;57.20;;;;;;10446598;28;19912;-51
2022/12/15 12:30:37;;;;;;;8.00;5.95;;;15.10;56.70;;;;;;10452009;28;20089;-53
2022/12/15 12:35:44;;;;;;;7.53;4.97;;;15.30;56.00;;;;;;10401739;28;20657;-54
2022/12/15 12:40:56;;;;;;;5.38;4.85;;;15.40;55.60;;;;;;10401555;28;20103;-54
2022/12/15 12:46:22;;;;;;;7.82;5.20;;;15.40;55.40;;;;;;10403053;28;20477;-54
2022/12/15 12:51:36;;;;;;;5.55;4.78;;;15.30;56.00;;;;;;10402239;28;20559;-54
2022/12/15 12:56:44;;;;;;;7.15;5.25;;;15.60;54.60;;;;;;10385550;28;20132;-53
2022/12/15 13:01:45;;;;;;;6.95;4.05;;;15.70;54.40;;;;;;10401493;28;20021;-54
2022/12/15 13:06:45;;;;;;;7.95;5.03;;;15.80;54.20;;;;;;10411779;28;20056;-54
2022/12/15 13:11:57;;;;;;;6.43;4.90;;;15.80;54.30;;;;;;10410764;28;20058;-53
2022/12/15 13:17:10;;;;;;;6.03;4.65;;;15.80;54.30;;;;;;10442657;28;20028;-53
2022/12/15 13:22:39;;;;;;;6.28;5.05;;;15.70;54.90;;;;;;10440791;28;20021;-54
2022/12/15 13:27:39;;;;;;;7.22;4.43;;;15.80;54.70;;;;;;10444177;28;20071;-53
2022/12/15 13:32:53;;;;;;;7.75;5.05;;;15.80;54.70;;;;;;10435587;28;20104;-53
2022/12/15 13:38:03;;;;;;;6.25;4.88;;;15.80;54.50;;;;;;10394042;28;20160;-53
2022/12/15 13:43:03;;;;;;;5.75;4.68;;;15.80;54.50;;;;;;10437222;28;20100;-54
2022/12/15 13:48:22;;;;;;;7.43;5.00;;;15.80;54.50;;;;;;10438072;28;20488;-51
2022/12/15 13:53:25;;;;;;;6.33;5.03;;;15.80;54.40;;;;;;10425424;28;20036;-53
2022/12/15 13:58:30;;;;;;;5.13;4.55;;;15.70;54.60;;;;;;10428716;28;20291;-53
2022/12/15 14:03:31;;;;;;;6.90;4.97;;;15.70;54.40;;;;;;10438597;28;20075;-53
2022/12/15 14:08:31;;;;;;;5.70;4.57;;;15.80;54.20;;;;;;10444814;28;20120;-54
2022/12/15 14:13:35;;;;;;;6.03;4.97;;;15.80;54.10;;;;;;10437811;28;20017;-53
2022/12/15 14:18:37;;;;;;;6.50;4.55;;;15.80;54.10;;;;;;10450295;28;20031;-53
2022/12/15 14:23:42;;;;;;;6.30;5.07;;;15.80;54.10;;;;;;10437427;28;20076;-53
2022/12/15 14:28:46;;;;;;;7.05;4.85;;;15.80;53.90;;;;;;10419482;28;20086;-53
2022/12/15 14:34:05;;;;;;;6.25;4.75;;;15.80;53.90;;;;;;10446240;28;20100;-52
2022/12/15 14:39:42;;;;;;;5.28;4.47;;;15.90;53.70;;;;;;10421177;28;20746;-52
2022/12/15 14:44:45;;;;;;;7.32;5.70;;;15.90;53.70;;;;;;10403097;28;20053;-53
2022/12/15 14:49:47;;;;;;;5.35;4.45;;;15.90;53.60;;;;;;10407031;28;20064;-54
2022/12/15 14:54:55;;;;;;;6.28;4.80;;;15.90;53.60;;;;;;10407235;28;20566;-53
2022/12/15 14:59:56;;;;;;;6.80;4.97;;;15.90;53.50;;;;;;10424742;28;20396;-51
2022/12/15 15:05:03;;;;;;;6.65;4.78;;;15.80;53.50;;;;;;10446212;28;20101;-53
2022/12/15 15:10:22;;;;;;;5.82;4.78;;;15.90;53.50;;;;;;10424175;28;20013;-52
2022/12/15 15:15:25;;;;;;;6.13;5.07;;;16.00;53.20;;;;;;10448131;28;20056;-54
2022/12/15 15:20:36;;;;;;;6.65;5.00;;;16.00;52.90;;;;;;10449484;28;20013;-52
2022/12/15 15:26:04;;;;;;;6.72;4.75;;;16.00;53.10;;;;;;10423424;28;20025;-53
2022/12/15 15:31:23;;;;;;;6.53;4.50;;;16.00;53.10;;;;;;10450248;28;20059;-50
2022/12/15 15:36:35;;;;;;;7.20;5.47;;;15.90;53.80;;;;;;10417257;28;20025;-53
2022/12/15 15:41:35;;;;;;;6.68;4.72;;;15.80;53.70;;;;;;10444440;28;20391;-54
2022/12/15 15:46:49;;;;;;;6.70;4.60;;;15.90;53.30;;;;;;10445160;28;20040;-54
2022/12/15 15:51:50;;;;;;;6.47;5.05;;;16.10;52.90;;;;;;10444155;28;20109;-54
2022/12/15 15:56:51;;;;;;;6.88;6.20;;;16.10;52.80;;;;;;10437553;28;20028;-52
2022/12/15 16:01:54;;;;;;;6.65;5.22;;;16.10;52.70;;;;;;10404069;28;20028;-54
2022/12/15 16:06:55;;;;;;;7.78;5.25;;;16.00;52.90;;;;;;10437165;28;20060;-53
2022/12/15 16:11:57;;;;;;;5.78;4.72;;;16.00;53.00;;;;;;10442198;28;20572;-54
2022/12/15 16:16:58;;;;;;;6.35;5.18;;;16.00;53.00;;;;;;10428529;28;20037;-54
2022/12/15 16:21:59;;;;;;;5.93;4.80;;;15.90;53.00;;;;;;10423423;28;20015;-54
2022/12/15 16:27:01;;;;;;;7.55;4.97;;;15.90;53.30;;;;;;10423285;28;20096;-53
2022/12/15 16:32:04;;;;;;;8.10;5.15;;;15.80;53.50;;;;;;10437830;28;20448;-54
2022/12/15 16:37:07;;;;;;;9.27;5.78;;;15.80;53.50;;;;;;10417799;28;20036;-48
2022/12/15 16:42:10;;;;;;;10.00;7.35;;;15.80;53.60;;;;;;10410492;28;20103;-52
2022/12/15 16:47:11;;;;;;;10.77;7.45;;;15.80;54.10;;;;;;10429194;28;20041;-53
2022/12/15 16:52:19;;;;;;;15.35;10.15;;;15.90;54.40;;;;;;10438706;28;20049;-53
2022/12/15 16:57:20;;;;;;;13.73;11.43;;;16.00;54.10;;;;;;10436713;28;20029;-53
2022/12/15 17:02:27;;;;;;;20.10;13.82;;;16.10;54.30;;;;;;10440705;28;20108;-54
2022/12/15 17:07:28;;;;;;;17.85;11.35;;;16.10;55.20;;;;;;10436010;28;20028;-53
2022/12/15 17:12:29;;;;;;;26.35;17.45;;;16.30;54.80;;;;;;10446520;28;20107;-54
2022/12/15 17:17:29;;;;;;;29.13;16.02;;;16.50;55.90;;;;;;10442615;28;20029;-54
2022/12/15 17:22:31;;;;;;;24.00;13.65;;;16.50;54.60;;;;;;10448795;28;20025;-53
2022/12/15 17:27:32;;;;;;;19.73;15.77;;;16.70;55.20;;;;;;10433617;28;20021;-52
2022/12/15 17:32:32;;;;;;;22.92;15.55;;;17.10;55.40;;;;;;10441129;28;20032;-53
2022/12/15 17:37:33;;;;;;;25.10;16.27;;;17.20;55.40;;;;;;10442281;28;20117;-52
2022/12/15 17:42:34;;;;;;;22.05;13.88;;;17.30;54.60;;;;;;10404302;28;20032;-54
2022/12/15 17:47:34;;;;;;;19.73;14.02;;;16.90;57.10;;;;;;10444058;28;20141;-53
2022/12/15 17:52:35;;;;;;;26.25;14.45;;;16.70;57.30;;;;;;10451802;28;20407;-54
2022/12/15 17:57:36;;;;;;;23.85;14.15;;;16.50;57.80;;;;;;10421436;28;20120;-54
2022/12/15 18:02:36;;;;;;;24.50;13.30;;;16.40;57.90;;;;;;10412828;28;20048;-51
2022/12/15 18:07:37;;;;;;;24.58;13.43;;;16.30;57.90;;;;;;10427231;28;20053;-55
2022/12/15 18:12:38;;;;;;;21.65;12.10;;;16.20;57.60;;;;;;10421826;28;20021;-55
2022/12/15 18:17:38;;;;;;;26.52;12.50;;;16.10;58.00;;;;;;10419711;28;20145;-55
2022/12/15 18:22:39;;;;;;;18.90;12.02;;;16.10;57.50;;;;;;10429966;28;20186;-54
2022/12/15 18:27:40;;;;;;;18.65;11.82;;;16.00;57.60;;;;;;10439652;28;20034;-54
2022/12/15 18:32:41;;;;;;;21.10;10.50;;;16.00;57.60;;;;;;10431862;28;20663;-52
2022/12/15 18:37:42;;;;;;;17.08;10.55;;;16.10;57.50;;;;;;10447851;28;20033;-54
2022/12/15 18:42:45;;;;;;;16.52;10.45;;;16.10;57.50;;;;;;10446185;28;20014;-54
2022/12/15 18:47:46;;;;;;;14.85;10.13;;;16.10;57.40;;;;;;10447609;28;20087;-53
2022/12/15 18:53:01;;;;;;;17.88;11.02;;;16.00;57.50;;;;;;10434584;28;20033;-53
2022/12/15 18:58:02;;;;;;;15.07;9.25;;;16.00;57.50;;;;;;10433014;28;20033;-55
2022/12/15 19:03:03;;;;;;;14.38;8.88;;;16.00;58.00;;;;;;10407348;28;20053;-55
2022/12/15 19:08:12;;;;;;;17.20;8.90;;;16.00;58.00;;;;;;10429358;28;20052;-53
2022/12/15 19:13:14;;;;;;;15.55;8.43;;;16.00;58.00;;;;;;10431247;28;20090;-55
2022/12/15 19:23:37;;;;;;;14.50;8.40;;;16.00;58.10;;;;;;10439630;28;20033;-54
2022/12/15 19:28:38;;;;;;;11.95;7.72;;;16.00;58.90;;;;;;10391355;28;20740;-54
2022/12/15 19:33:38;;;;;;;16.83;7.78;;;16.00;59.00;;;;;;10458230;28;20836;-58
2022/12/15 19:38:39;;;;;;;18.58;9.60;;;15.90;59.10;;;;;;10427512;28;20029;-54
2022/12/15 19:43:40;;;;;;;12.55;7.72;;;15.90;59.10;;;;;;10448653;28;20124;-53
2022/12/15 19:48:40;;;;;;;13.95;7.15;;;15.90;59.00;;;;;;10448559;28;20041;-54
2022/12/15 19:53:44;;;;;;;12.05;7.78;;;15.90;59.20;;;;;;10432865;28;20112;-53
2022/12/15 19:58:45;;;;;;;15.60;7.47;;;15.90;58.90;;;;;;10429742;28;20029;-56
2022/12/15 20:03:49;;;;;;;11.30;7.28;;;15.90;59.10;;;;;;10437862;28;20021;-55
2022/12/15 20:08:55;;;;;;;12.45;7.20;;;15.90;59.00;;;;;;10412938;28;20025;-55
2022/12/15 20:13:56;;;;;;;8.75;6.88;;;15.90;59.00;;;;;;10419413;28;20024;-55
2022/12/15 20:18:57;;;;;;;9.82;6.70;;;16.00;59.10;;;;;;10433873;28;20468;-53
2022/12/15 20:24:19;;;;;;;14.15;6.80;;;15.90;59.00;;;;;;10431243;28;20125;-56
2022/12/15 20:29:30;;;;;;;10.63;6.53;;;15.90;58.50;;;;;;10433713;28;20031;-57
2022/12/15 20:34:31;;;;;;;9.85;6.47;;;15.90;58.10;;;;;;10438501;28;20124;-58
2022/12/15 20:39:32;;;;;;;10.70;6.47;;;15.90;57.90;;;;;;10446023;28;20029;-56
2022/12/15 20:44:33;;;;;;;8.38;5.60;;;15.90;57.70;;;;;;10406791;28;20203;-58
2022/12/15 20:49:34;;;;;;;10.90;6.20;;;15.90;57.70;;;;;;10431920;28;20110;-57
2022/12/15 20:54:34;;;;;;;7.80;5.88;;;15.90;57.70;;;;;;10422832;28;20116;-57
2022/12/15 20:59:35;;;;;;;8.13;5.72;;;15.90;57.50;;;;;;10422713;28;20132;-56
2022/12/15 21:04:36;;;;;;;10.65;6.28;;;15.90;57.30;;;;;;10440563;28;20104;-57
2022/12/15 21:09:37;;;;;;;9.55;6.57;;;15.90;57.20;;;;;;10418028;28;20112;-56
2022/12/15 21:14:37;;;;;;;9.32;6.55;;;15.90;57.00;;;;;;10440997;28;20480;-56
2022/12/15 21:19:38;;;;;;;10.27;6.45;;;15.90;56.50;;;;;;10444618;28;20550;-56
2022/12/15 21:24:39;;;;;;;14.27;6.53;;;16.00;56.40;;;;;;10398184;28;20086;-57
2022/12/15 21:29:40;;;;;;;9.25;6.65;;;16.00;56.10;;;;;;10437735;28;20115;-57
2022/12/15 21:34:41;;;;;;;7.60;6.00;;;16.10;55.80;;;;;;10424235;28;20431;-58
2022/12/15 21:39:42;;;;;;;10.57;7.57;;;16.10;55.70;;;;;;10425660;28;20083;-57
2022/12/15 21:44:43;;;;;;;9.02;5.85;;;16.10;55.50;;;;;;10445439;28;20534;-57
2022/12/15 21:49:44;;;;;;;10.25;6.90;;;16.10;55.40;;;;;;10432339;28;20033;-57
2022/12/15 21:54:44;;;;;;;9.15;6.57;;;16.20;55.80;;;;;;10434173;28;20108;-57
2022/12/15 21:59:45;;;;;;;8.23;5.78;;;16.20;55.00;;;;;;10451054;28;20368;-57
2022/12/15 22:04:47;;;;;;;9.18;6.65;;;16.20;54.90;;;;;;10442932;28;20108;-57
2022/12/15 22:09:48;;;;;;;8.23;6.18;;;16.30;54.60;;;;;;10451837;28;20021;-57
2022/12/15 22:14:49;;;;;;;8.52;6.43;;;16.30;54.50;;;;;;10450768;28;20377;-57
2022/12/15 22:19:50;;;;;;;8.32;6.75;;;16.20;54.50;;;;;;10450331;28;20041;-57
2022/12/15 22:24:50;;;;;;;8.25;6.82;;;16.20;54.50;;;;;;10414631;28;20408;-58
2022/12/15 22:29:51;;;;;;;8.48;6.82;;;16.30;54.20;;;;;;10455041;28;20537;-57
2022/12/15 22:34:52;;;;;;;7.47;6.28;;;16.20;54.30;;;;;;10450654;28;20044;-54
2022/12/15 22:39:53;;;;;;;8.57;6.30;;;16.20;54.20;;;;;;10410177;28;20041;-55
2022/12/15 22:44:54;;;;;;;9.80;7.10;;;16.20;54.00;;;;;;10408466;28;20072;-57
2022/12/15 22:49:56;;;;;;;10.13;7.70;;;16.30;54.00;;;;;;10437000;28;20144;-56
2022/12/15 22:54:57;;;;;;;8.23;6.53;;;16.30;53.70;;;;;;10437668;28;20512;-55
2022/12/15 23:00:08;;;;;;;8.73;6.65;;;16.30;53.60;;;;;;10438004;28;20037;-56
2022/12/15 23:05:13;;;;;;;8.93;6.65;;;16.30;53.30;;;;;;10426881;28;20025;-57
2022/12/15 23:20:56;;;;;;;9.07;6.32;;;16.30;53.10;;;;;;10450000;28;20033;-57
2022/12/15 23:25:57;;;;;;;8.32;6.32;;;16.30;53.20;;;;;;10439794;28;20383;-56
2022/12/15 23:30:58;;;;;;;8.55;6.47;;;16.30;53.20;;;;;;10459919;28;20373;-57
2022/12/15 23:35:59;;;;;;;7.57;5.88;;;16.30;53.20;;;;;;10435186;28;20047;-55
2022/12/15 23:41:00;;;;;;;8.10;6.38;;;16.30;53.30;;;;;;10441275;28;20112;-56
2022/12/15 23:46:05;;;;;;;8.52;5.68;;;16.20;53.30;;;;;;10437203;28;20045;-57
2022/12/15 23:51:15;;;;;;;7.90;6.40;;;16.30;53.10;;;;;;10433578;28;20653;-56
2022/12/15 23:56:23;;;;;;;9.30;6.20;;;16.40;52.90;;;;;;10440401;28;20048;-56
